sensor_id;sensor_type;location;lat;lon;timestamp;pressure;altitude;pressure_sealevel;temperature;humidity
79411;BME280;69635;50.964;6.948;2023-06-19T00:00:08;100367.94;;;22.26;58.16
79411;BME280;69635;50.964;6.948;2023-06-19T00:02:41;100371.00;;;22.20;58.12
79411;BME280;69635;50.964;6.948;2023-06-19T00:05:12;100367.75;;;22.13;58.72
79411;BME280;69635;50.964;6.948;2023-06-19T00:07:38;100364.28;;;22.11;58.43
79411;BME280;69635;50.964;6.948;2023-06-19T00:10:04;100369.06;;;22.06;58.23
79411;BME280;69635;50.964;6.948;2023-06-19T00:12:30;100374.63;;;22.03;59.10
79411;BME280;69635;50.964;6.948;2023-06-19T00:14:55;100361.22;;;22.02;58.62
79411;BME280;69635;50.964;6.948;2023-06-19T00:17:20;100370.94;;;22.04;58.58
79411;BME280;69635;50.964;6.948;2023-06-19T00:19:46;100374.53;;;22.05;58.80
79411;BME280;69635;50.964;6.948;2023-06-19T00:22:14;100376.19;;;22.07;58.75
79411;BME280;69635;50.964;6.948;2023-06-19T00:24:39;100378.97;;;22.06;58.80
79411;BME280;69635;50.964;6.948;2023-06-19T00:27:05;100381.81;;;22.03;58.92
79411;BME280;69635;50.964;6.948;2023-06-19T00:29:31;100384.59;;;22.01;59.17
79411;BME280;69635;50.964;6.948;2023-06-19T00:31:59;100388.50;;;21.96;59.07
79411;BME280;69635;50.964;6.948;2023-06-19T00:34:28;100377.41;;;21.85;59.32
79411;BME280;69635;50.964;6.948;2023-06-19T00:36:57;100379.63;;;21.77;60.25
79411;BME280;69635;50.964;6.948;2023-06-19T00:39:24;100395.66;;;21.80;60.05
79411;BME280;69635;50.964;6.948;2023-06-19T00:41:52;100391.28;;;21.77;60.11
79411;BME280;69635;50.964;6.948;2023-06-19T00:44:17;100395.00;;;21.75;60.89
79411;BME280;69635;50.964;6.948;2023-06-19T00:46:43;100388.38;;;21.65;61.33
79411;BME280;69635;50.964;6.948;2023-06-19T00:49:09;100399.66;;;21.71;61.53
79411;BME280;69635;50.964;6.948;2023-06-19T00:51:35;100409.72;;;21.68;61.52
79411;BME280;69635;50.964;6.948;2023-06-19T00:54:00;100416.00;;;21.68;61.67
79411;BME280;69635;50.964;6.948;2023-06-19T00:56:26;100418.59;;;21.70;61.69
79411;BME280;69635;50.964;6.948;2023-06-19T00:58:52;100414.00;;;21.72;61.53
79411;BME280;69635;50.964;6.948;2023-06-19T01:01:19;100413.84;;;21.75;61.61
79411;BME280;69635;50.964;6.948;2023-06-19T01:03:46;100412.78;;;21.79;61.73
79411;BME280;69635;50.964;6.948;2023-06-19T01:06:20;100423.28;;;21.83;61.31
79411;BME280;69635;50.964;6.948;2023-06-19T01:09:05;100422.19;;;21.87;61.01
79411;BME280;69635;50.964;6.948;2023-06-19T01:11:37;100424.47;;;21.95;60.67
79411;BME280;69635;50.964;6.948;2023-06-19T01:14:26;100405.34;;;21.99;60.57
79411;BME280;69635;50.964;6.948;2023-06-19T01:16:53;100403.53;;;22.00;60.69
79411;BME280;69635;50.964;6.948;2023-06-19T01:19:20;100401.06;;;21.95;60.41
79411;BME280;69635;50.964;6.948;2023-06-19T01:21:47;100405.00;;;21.90;60.93
79411;BME280;69635;50.964;6.948;2023-06-19T01:24:13;100402.63;;;21.84;60.87
79411;BME280;69635;50.964;6.948;2023-06-19T01:26:40;100415.53;;;21.77;60.92
79411;BME280;69635;50.964;6.948;2023-06-19T01:29:11;100407.25;;;21.63;61.35
79411;BME280;69635;50.964;6.948;2023-06-19T01:31:45;100407.59;;;21.57;61.92
79411;BME280;69635;50.964;6.948;2023-06-19T01:34:15;100410.47;;;21.54;61.50
79411;BME280;69635;50.964;6.948;2023-06-19T01:36:43;100405.59;;;21.44;62.33
79411;BME280;69635;50.964;6.948;2023-06-19T01:39:15;100401.97;;;21.45;62.61
79411;BME280;69635;50.964;6.948;2023-06-19T01:41:42;100407.38;;;21.45;62.60
79411;BME280;69635;50.964;6.948;2023-06-19T01:44:14;100417.75;;;21.52;62.66
79411;BME280;69635;50.964;6.948;2023-06-19T01:46:43;100410.69;;;21.50;62.84
79411;BME280;69635;50.964;6.948;2023-06-19T01:49:17;100401.25;;;21.41;63.09
79411;BME280;69635;50.964;6.948;2023-06-19T01:51:46;100417.06;;;21.47;63.11
79411;BME280;69635;50.964;6.948;2023-06-19T01:54:16;100409.09;;;21.46;63.51
79411;BME280;69635;50.964;6.948;2023-06-19T01:56:44;100408.06;;;21.48;63.27
79411;BME280;69635;50.964;6.948;2023-06-19T01:59:12;100419.84;;;21.46;63.29
79411;BME280;69635;50.964;6.948;2023-06-19T02:01:38;100431.19;;;21.52;63.42
79411;BME280;69635;50.964;6.948;2023-06-19T02:04:04;100434.91;;;21.50;63.56
79411;BME280;69635;50.964;6.948;2023-06-19T02:06:30;100434.19;;;21.46;63.90
79411;BME280;69635;50.964;6.948;2023-06-19T02:08:59;100446.63;;;21.49;63.98
79411;BME280;69635;50.964;6.948;2023-06-19T02:11:24;100440.28;;;21.50;64.15
79411;BME280;69635;50.964;6.948;2023-06-19T02:13:50;100445.75;;;21.48;64.24
79411;BME280;69635;50.964;6.948;2023-06-19T02:16:15;100444.88;;;21.48;64.24
79411;BME280;69635;50.964;6.948;2023-06-19T02:18:40;100455.47;;;21.51;64.02
79411;BME280;69635;50.964;6.948;2023-06-19T02:21:06;100459.75;;;21.55;64.05
79411;BME280;69635;50.964;6.948;2023-06-19T02:23:31;100464.22;;;21.56;63.84
79411;BME280;69635;50.964;6.948;2023-06-19T02:25:57;100456.84;;;21.59;64.21
79411;BME280;69635;50.964;6.948;2023-06-19T02:28:23;100467.53;;;21.61;63.83
79411;BME280;69635;50.964;6.948;2023-06-19T02:30:48;100471.97;;;21.62;63.81
79411;BME280;69635;50.964;6.948;2023-06-19T02:33:14;100479.25;;;21.60;63.70
79411;BME280;69635;50.964;6.948;2023-06-19T02:35:39;100473.09;;;21.58;63.68
79411;BME280;69635;50.964;6.948;2023-06-19T02:38:07;100482.66;;;21.63;63.62
79411;BME280;69635;50.964;6.948;2023-06-19T02:40:32;100486.94;;;21.67;63.53
79411;BME280;69635;50.964;6.948;2023-06-19T02:42:57;100474.25;;;21.69;63.36
79411;BME280;69635;50.964;6.948;2023-06-19T02:45:23;100492.09;;;21.72;63.22
79411;BME280;69635;50.964;6.948;2023-06-19T02:47:48;100485.03;;;21.69;63.58
79411;BME280;69635;50.964;6.948;2023-06-19T02:50:18;100486.06;;;21.67;63.49
79411;BME280;69635;50.964;6.948;2023-06-19T02:52:44;100492.22;;;21.69;63.53
79411;BME280;69635;50.964;6.948;2023-06-19T02:55:12;100507.47;;;21.70;63.46
79411;BME280;69635;50.964;6.948;2023-06-19T02:57:41;100497.06;;;21.62;63.62
79411;BME280;69635;50.964;6.948;2023-06-19T03:00:07;100502.53;;;21.61;63.52
79411;BME280;69635;50.964;6.948;2023-06-19T03:02:39;100499.94;;;21.59;63.30
79411;BME280;69635;50.964;6.948;2023-06-19T03:05:12;100510.63;;;21.61;63.51
79411;BME280;69635;50.964;6.948;2023-06-19T03:07:40;100491.44;;;21.50;63.79
79411;BME280;69635;50.964;6.948;2023-06-19T03:10:06;100505.78;;;21.50;63.88
79411;BME280;69635;50.964;6.948;2023-06-19T03:12:34;100511.06;;;21.52;63.73
79411;BME280;69635;50.964;6.948;2023-06-19T03:15:03;100502.91;;;21.36;64.11
79411;BME280;69635;50.964;6.948;2023-06-19T03:17:29;100521.06;;;21.31;64.21
79411;BME280;69635;50.964;6.948;2023-06-19T03:19:57;100517.44;;;21.13;64.59
79411;BME280;69635;50.964;6.948;2023-06-19T03:22:23;100525.25;;;21.01;65.18
79411;BME280;69635;50.964;6.948;2023-06-19T03:24:52;100528.59;;;21.06;64.98
79411;BME280;69635;50.964;6.948;2023-06-19T03:27:21;100526.19;;;21.00;65.08
79411;BME280;69635;50.964;6.948;2023-06-19T03:29:49;100541.38;;;21.01;65.38
79411;BME280;69635;50.964;6.948;2023-06-19T03:32:15;100528.75;;;20.83;65.36
79411;BME280;69635;50.964;6.948;2023-06-19T03:34:41;100544.41;;;20.93;64.73
79411;BME280;69635;50.964;6.948;2023-06-19T03:37:10;100553.13;;;20.98;64.19
79411;BME280;69635;50.964;6.948;2023-06-19T03:39:35;100562.50;;;20.90;64.43
79411;BME280;69635;50.964;6.948;2023-06-19T03:42:01;100557.25;;;20.87;64.31
79411;BME280;69635;50.964;6.948;2023-06-19T03:44:30;100569.78;;;20.88;63.59
79411;BME280;69635;50.964;6.948;2023-06-19T03:46:59;100576.63;;;20.95;63.53
79411;BME280;69635;50.964;6.948;2023-06-19T03:49:24;100577.22;;;21.01;63.37
79411;BME280;69635;50.964;6.948;2023-06-19T03:51:53;100580.63;;;21.05;62.65
79411;BME280;69635;50.964;6.948;2023-06-19T03:54:20;100573.44;;;21.05;63.08
79411;BME280;69635;50.964;6.948;2023-06-19T03:56:48;100585.09;;;21.06;62.11
79411;BME280;69635;50.964;6.948;2023-06-19T03:59:14;100597.44;;;21.10;61.95
79411;BME280;69635;50.964;6.948;2023-06-19T04:01:39;100599.19;;;21.11;61.64
79411;BME280;69635;50.964;6.948;2023-06-19T04:04:05;100602.16;;;21.05;61.35
79411;BME280;69635;50.964;6.948;2023-06-19T04:06:34;100618.31;;;21.05;61.45
79411;BME280;69635;50.964;6.948;2023-06-19T04:08:59;100629.31;;;20.99;61.60
79411;BME280;69635;50.964;6.948;2023-06-19T04:11:25;100633.44;;;20.87;62.21
79411;BME280;69635;50.964;6.948;2023-06-19T04:13:50;100624.81;;;20.79;62.29
79411;BME280;69635;50.964;6.948;2023-06-19T04:16:16;100622.22;;;20.78;62.39
79411;BME280;69635;50.964;6.948;2023-06-19T04:18:42;100629.44;;;20.77;62.65
79411;BME280;69635;50.964;6.948;2023-06-19T04:21:07;100627.66;;;20.76;63.01
79411;BME280;69635;50.964;6.948;2023-06-19T04:23:35;100642.72;;;20.80;63.14
79411;BME280;69635;50.964;6.948;2023-06-19T04:26:01;100641.66;;;20.84;63.86
79411;BME280;69635;50.964;6.948;2023-06-19T04:28:27;100639.75;;;20.86;63.59
79411;BME280;69635;50.964;6.948;2023-06-19T04:30:52;100647.22;;;21.00;63.36
79411;BME280;69635;50.964;6.948;2023-06-19T04:33:26;100656.22;;;20.99;63.84
79411;BME280;69635;50.964;6.948;2023-06-19T04:35:52;100644.69;;;20.95;63.83
79411;BME280;69635;50.964;6.948;2023-06-19T04:38:18;100649.97;;;20.98;64.11
79411;BME280;69635;50.964;6.948;2023-06-19T04:40:43;100660.53;;;21.03;64.05
79411;BME280;69635;50.964;6.948;2023-06-19T04:43:09;100664.41;;;20.96;64.84
79411;BME280;69635;50.964;6.948;2023-06-19T04:45:35;100662.03;;;20.90;65.23
79411;BME280;69635;50.964;6.948;2023-06-19T04:48:01;100659.53;;;20.85;65.51
79411;BME280;69635;50.964;6.948;2023-06-19T04:50:28;100664.81;;;20.87;65.51
79411;BME280;69635;50.964;6.948;2023-06-19T04:52:53;100657.63;;;20.87;65.73
79411;BME280;69635;50.964;6.948;2023-06-19T04:55:19;100661.94;;;20.91;65.76
79411;BME280;69635;50.964;6.948;2023-06-19T04:57:45;100663.59;;;20.94;65.85
79411;BME280;69635;50.964;6.948;2023-06-19T05:00:10;100668.47;;;20.86;65.97
79411;BME280;69635;50.964;6.948;2023-06-19T05:02:36;100667.19;;;20.94;65.90
79411;BME280;69635;50.964;6.948;2023-06-19T05:05:02;100675.31;;;20.93;65.63
79411;BME280;69635;50.964;6.948;2023-06-19T05:07:27;100669.34;;;21.06;65.55
79411;BME280;69635;50.964;6.948;2023-06-19T05:09:53;100674.59;;;21.09;65.36
79411;BME280;69635;50.964;6.948;2023-06-19T05:12:18;100663.38;;;21.19;65.24
79411;BME280;69635;50.964;6.948;2023-06-19T05:14:43;100681.75;;;21.29;64.71
79411;BME280;69635;50.964;6.948;2023-06-19T05:17:09;100687.13;;;21.29;64.78
79411;BME280;69635;50.964;6.948;2023-06-19T05:19:35;100691.16;;;21.19;64.84
79411;BME280;69635;50.964;6.948;2023-06-19T05:22:01;100690.16;;;21.22;64.93
79411;BME280;69635;50.964;6.948;2023-06-19T05:24:26;100679.59;;;21.17;64.93
79411;BME280;69635;50.964;6.948;2023-06-19T05:26:52;100685.66;;;21.22;64.84
79411;BME280;69635;50.964;6.948;2023-06-19T05:29:17;100684.06;;;21.37;64.43
79411;BME280;69635;50.964;6.948;2023-06-19T05:31:43;100683.34;;;21.52;64.04
79411;BME280;69635;50.964;6.948;2023-06-19T05:34:08;100681.75;;;22.03;62.17
79411;BME280;69635;50.964;6.948;2023-06-19T05:36:34;100676.50;;;22.36;60.87
79411;BME280;69635;50.964;6.948;2023-06-19T05:38:59;100681.97;;;22.69;59.86
79411;BME280;69635;50.964;6.948;2023-06-19T05:41:24;100687.84;;;22.60;59.60
79411;BME280;69635;50.964;6.948;2023-06-19T05:43:50;100681.34;;;22.81;59.37
79411;BME280;69635;50.964;6.948;2023-06-19T05:46:15;100684.44;;;23.23;57.99
79411;BME280;69635;50.964;6.948;2023-06-19T05:48:41;100680.69;;;23.43;57.40
79411;BME280;69635;50.964;6.948;2023-06-19T05:51:06;100688.78;;;23.58;56.90
79411;BME280;69635;50.964;6.948;2023-06-19T05:53:32;100688.28;;;23.67;56.12
79411;BME280;69635;50.964;6.948;2023-06-19T05:55:57;100692.00;;;23.49;55.30
79411;BME280;69635;50.964;6.948;2023-06-19T05:58:23;100699.28;;;23.80;54.93
79411;BME280;69635;50.964;6.948;2023-06-19T06:00:51;100694.16;;;24.06;53.59
79411;BME280;69635;50.964;6.948;2023-06-19T06:03:23;100708.03;;;24.00;53.44
79411;BME280;69635;50.964;6.948;2023-06-19T06:05:49;100701.47;;;24.20;53.07
79411;BME280;69635;50.964;6.948;2023-06-19T06:08:15;100703.81;;;24.42;52.31
79411;BME280;69635;50.964;6.948;2023-06-19T06:10:43;100701.03;;;24.28;52.50
79411;BME280;69635;50.964;6.948;2023-06-19T06:13:08;100716.78;;;23.88;53.49
79411;BME280;69635;50.964;6.948;2023-06-19T06:15:34;100705.66;;;23.79;53.79
79411;BME280;69635;50.964;6.948;2023-06-19T06:17:59;100712.47;;;24.01;52.66
79411;BME280;69635;50.964;6.948;2023-06-19T06:20:28;100688.78;;;24.66;51.30
79411;BME280;69635;50.964;6.948;2023-06-19T06:22:53;100705.13;;;24.94;50.57
79411;BME280;69635;50.964;6.948;2023-06-19T06:25:19;100701.19;;;25.13;49.37
79411;BME280;69635;50.964;6.948;2023-06-19T06:27:45;100695.28;;;24.93;49.78
79411;BME280;69635;50.964;6.948;2023-06-19T06:30:11;100705.25;;;24.02;52.03
79411;BME280;69635;50.964;6.948;2023-06-19T06:32:37;100711.75;;;23.67;53.76
79411;BME280;69635;50.964;6.948;2023-06-19T06:35:04;100722.00;;;23.60;54.16
79411;BME280;69635;50.964;6.948;2023-06-19T06:37:29;100715.81;;;23.58;54.18
79411;BME280;69635;50.964;6.948;2023-06-19T06:39:55;100719.00;;;22.99;55.90
79411;BME280;69635;50.964;6.948;2023-06-19T06:42:20;100726.16;;;22.83;56.42
79411;BME280;69635;50.964;6.948;2023-06-19T06:44:46;100720.19;;;22.94;55.88
79411;BME280;69635;50.964;6.948;2023-06-19T06:47:11;100721.97;;;23.45;54.86
79411;BME280;69635;50.964;6.948;2023-06-19T06:49:37;100715.34;;;24.14;53.37
79411;BME280;69635;50.964;6.948;2023-06-19T06:52:04;100733.19;;;25.07;49.87
79411;BME280;69635;50.964;6.948;2023-06-19T06:54:29;100739.16;;;25.70;49.09
79411;BME280;69635;50.964;6.948;2023-06-19T06:56:55;100745.91;;;25.35;48.77
79411;BME280;69635;50.964;6.948;2023-06-19T06:59:24;100744.03;;;25.21;48.95
79411;BME280;69635;50.964;6.948;2023-06-19T07:01:50;100757.56;;;24.62;49.83
79411;BME280;69635;50.964;6.948;2023-06-19T07:04:15;100754.47;;;23.91;51.06
79411;BME280;69635;50.964;6.948;2023-06-19T07:06:40;100754.97;;;23.98;51.30
79411;BME280;69635;50.964;6.948;2023-06-19T07:09:06;100755.75;;;24.62;49.57
79411;BME280;69635;50.964;6.948;2023-06-19T07:11:32;100751.41;;;25.33;47.98
79411;BME280;69635;50.964;6.948;2023-06-19T07:14:03;100749.22;;;25.82;46.53
79411;BME280;69635;50.964;6.948;2023-06-19T07:16:30;100757.88;;;25.16;47.75
79411;BME280;69635;50.964;6.948;2023-06-19T07:18:56;100746.16;;;24.57;49.32
79411;BME280;69635;50.964;6.948;2023-06-19T07:21:30;100757.94;;;24.71;48.97
79411;BME280;69635;50.964;6.948;2023-06-19T07:23:57;100737.94;;;25.17;47.47
79411;BME280;69635;50.964;6.948;2023-06-19T07:26:23;100742.59;;;25.30;47.29
79411;BME280;69635;50.964;6.948;2023-06-19T07:28:48;100734.53;;;25.00;47.19
79411;BME280;69635;50.964;6.948;2023-06-19T07:31:14;100750.66;;;25.31;46.87
79411;BME280;69635;50.964;6.948;2023-06-19T07:33:39;100746.06;;;25.47;46.63
79411;BME280;69635;50.964;6.948;2023-06-19T07:36:05;100752.06;;;25.37;46.98
79411;BME280;69635;50.964;6.948;2023-06-19T07:38:30;100759.75;;;24.71;48.65
79411;BME280;69635;50.964;6.948;2023-06-19T07:40:56;100757.09;;;24.40;49.45
79411;BME280;69635;50.964;6.948;2023-06-19T07:43:21;100752.72;;;24.37;50.14
79411;BME280;69635;50.964;6.948;2023-06-19T07:45:48;100762.66;;;24.37;50.32
79411;BME280;69635;50.964;6.948;2023-06-19T07:48:13;100764.25;;;24.41;49.72
79411;BME280;69635;50.964;6.948;2023-06-19T07:50:39;100771.91;;;24.48;50.04
79411;BME280;69635;50.964;6.948;2023-06-19T07:53:04;100768.00;;;24.38;50.35
79411;BME280;69635;50.964;6.948;2023-06-19T07:55:30;100770.97;;;24.34;50.95
79411;BME280;69635;50.964;6.948;2023-06-19T07:57:56;100764.66;;;23.86;51.91
79411;BME280;69635;50.964;6.948;2023-06-19T08:00:41;100763.69;;;23.72;52.45
79411;BME280;69635;50.964;6.948;2023-06-19T08:03:06;100750.50;;;23.66;52.59
79411;BME280;69635;50.964;6.948;2023-06-19T08:05:32;100764.81;;;23.83;52.36
79411;BME280;69635;50.964;6.948;2023-06-19T08:08:01;100758.28;;;23.72;52.43
79411;BME280;69635;50.964;6.948;2023-06-19T08:10:27;100760.38;;;23.82;53.01
79411;BME280;69635;50.964;6.948;2023-06-19T08:12:53;100762.16;;;23.99;52.88
79411;BME280;69635;50.964;6.948;2023-06-19T08:15:18;100778.13;;;24.03;52.75
79411;BME280;69635;50.964;6.948;2023-06-19T08:17:44;100782.75;;;24.17;52.75
79411;BME280;69635;50.964;6.948;2023-06-19T08:20:09;100772.38;;;24.09;52.46
79411;BME280;69635;50.964;6.948;2023-06-19T08:22:38;100776.03;;;24.24;52.47
79411;BME280;69635;50.964;6.948;2023-06-19T08:25:12;100772.34;;;24.41;52.02
79411;BME280;69635;50.964;6.948;2023-06-19T08:27:37;100757.06;;;24.55;51.17
79411;BME280;69635;50.964;6.948;2023-06-19T08:30:03;100748.81;;;24.88;50.71
79411;BME280;69635;50.964;6.948;2023-06-19T08:32:29;100755.69;;;25.93;47.91
79411;BME280;69635;50.964;6.948;2023-06-19T08:34:54;100754.59;;;25.96;47.24
79411;BME280;69635;50.964;6.948;2023-06-19T08:37:20;100766.00;;;26.70;45.45
79411;BME280;69635;50.964;6.948;2023-06-19T08:39:45;100772.47;;;26.41;46.46
79411;BME280;69635;50.964;6.948;2023-06-19T08:42:11;100761.78;;;25.41;48.09
79411;BME280;69635;50.964;6.948;2023-06-19T08:44:36;100771.88;;;26.09;46.46
79411;BME280;69635;50.964;6.948;2023-06-19T08:47:03;100755.47;;;26.78;44.40
79411;BME280;69635;50.964;6.948;2023-06-19T08:49:30;100767.50;;;26.47;45.67
79411;BME280;69635;50.964;6.948;2023-06-19T08:51:56;100769.75;;;26.41;44.14
79411;BME280;69635;50.964;6.948;2023-06-19T08:54:21;100775.38;;;26.38;43.65
79411;BME280;69635;50.964;6.948;2023-06-19T08:56:48;100788.25;;;26.48;43.55
79411;BME280;69635;50.964;6.948;2023-06-19T08:59:15;100774.91;;;26.72;43.25
79411;BME280;69635;50.964;6.948;2023-06-19T09:01:47;100777.03;;;26.67;43.82
79411;BME280;69635;50.964;6.948;2023-06-19T09:04:21;100773.66;;;26.63;43.71
79411;BME280;69635;50.964;6.948;2023-06-19T09:06:54;100778.28;;;26.75;43.58
79411;BME280;69635;50.964;6.948;2023-06-19T09:09:21;100777.66;;;27.99;40.67
79411;BME280;69635;50.964;6.948;2023-06-19T09:12:03;100777.34;;;26.89;42.89
79411;BME280;69635;50.964;6.948;2023-06-19T09:14:49;100784.59;;;26.62;43.24
79411;BME280;69635;50.964;6.948;2023-06-19T09:17:19;100799.97;;;26.49;43.19
79411;BME280;69635;50.964;6.948;2023-06-19T09:19:50;100786.84;;;26.29;44.13
79411;BME280;69635;50.964;6.948;2023-06-19T09:22:17;100800.31;;;26.16;44.40
79411;BME280;69635;50.964;6.948;2023-06-19T09:24:49;100795.78;;;26.02;44.92
79411;BME280;69635;50.964;6.948;2023-06-19T09:27:16;100805.84;;;26.00;45.63
79411;BME280;69635;50.964;6.948;2023-06-19T09:29:48;100791.44;;;25.86;45.53
79411;BME280;69635;50.964;6.948;2023-06-19T09:32:18;100805.94;;;26.27;44.89
79411;BME280;69635;50.964;6.948;2023-06-19T09:34:43;100792.00;;;26.05;44.65
79411;BME280;69635;50.964;6.948;2023-06-19T09:37:09;100801.78;;;26.21;44.76
79411;BME280;69635;50.964;6.948;2023-06-19T09:39:36;100805.44;;;26.61;44.12
79411;BME280;69635;50.964;6.948;2023-06-19T09:42:03;100806.81;;;25.85;46.88
79411;BME280;69635;50.964;6.948;2023-06-19T09:44:31;100801.78;;;25.93;46.26
79411;BME280;69635;50.964;6.948;2023-06-19T09:47:09;100794.31;;;26.52;44.61
79411;BME280;69635;50.964;6.948;2023-06-19T09:49:42;100795.44;;;26.35;44.81
79411;BME280;69635;50.964;6.948;2023-06-19T09:52:12;100800.59;;;26.93;43.33
79411;BME280;69635;50.964;6.948;2023-06-19T09:54:39;100799.75;;;27.05;42.58
79411;BME280;69635;50.964;6.948;2023-06-19T09:57:06;100795.63;;;27.12;41.87
79411;BME280;69635;50.964;6.948;2023-06-19T09:59:33;100791.03;;;27.39;41.24
79411;BME280;69635;50.964;6.948;2023-06-19T10:01:59;100789.09;;;27.02;41.93
79411;BME280;69635;50.964;6.948;2023-06-19T10:04:24;100795.84;;;27.09;42.07
79411;BME280;69635;50.964;6.948;2023-06-19T10:06:50;100804.25;;;27.18;40.79
79411;BME280;69635;50.964;6.948;2023-06-19T10:09:16;100800.72;;;27.31;40.59
79411;BME280;69635;50.964;6.948;2023-06-19T10:14:25;100799.19;;;27.64;40.58
79411;BME280;69635;50.964;6.948;2023-06-19T10:16:51;100797.34;;;27.90;39.55
79411;BME280;69635;50.964;6.948;2023-06-19T10:19:20;100791.38;;;27.97;40.50
79411;BME280;69635;50.964;6.948;2023-06-19T10:21:49;100797.56;;;27.62;41.26
79411;BME280;69635;50.964;6.948;2023-06-19T10:24:16;100804.19;;;27.83;40.11
79411;BME280;69635;50.964;6.948;2023-06-19T10:26:55;100796.22;;;27.17;40.61
79411;BME280;69635;50.964;6.948;2023-06-19T10:29:21;100773.00;;;27.38;40.69
79411;BME280;69635;50.964;6.948;2023-06-19T10:31:47;100781.88;;;27.90;39.33
79411;BME280;69635;50.964;6.948;2023-06-19T10:34:12;100784.41;;;27.56;39.52
79411;BME280;69635;50.964;6.948;2023-06-19T10:36:38;100791.16;;;27.50;40.06
79411;BME280;69635;50.964;6.948;2023-06-19T10:39:03;100781.59;;;27.70;39.09
79411;BME280;69635;50.964;6.948;2023-06-19T10:41:29;100783.91;;;26.99;41.10
79411;BME280;69635;50.964;6.948;2023-06-19T10:44:07;100778.75;;;27.59;39.11
79411;BME280;69635;50.964;6.948;2023-06-19T10:46:38;100786.69;;;27.99;38.35
79411;BME280;69635;50.964;6.948;2023-06-19T10:49:05;100781.56;;;27.82;38.11
79411;BME280;69635;50.964;6.948;2023-06-19T10:51:33;100779.38;;;28.12;37.83
79411;BME280;69635;50.964;6.948;2023-06-19T10:53:59;100785.97;;;28.21;37.39
79411;BME280;69635;50.964;6.948;2023-06-19T10:56:24;100765.22;;;28.44;36.91
79411;BME280;69635;50.964;6.948;2023-06-19T10:59:04;100776.75;;;28.11;36.55
79411;BME280;69635;50.964;6.948;2023-06-19T11:01:44;100780.78;;;28.78;36.25
79411;BME280;69635;50.964;6.948;2023-06-19T11:04:11;100767.25;;;28.29;38.19
79411;BME280;69635;50.964;6.948;2023-06-19T11:06:38;100764.81;;;28.37;37.85
79411;BME280;69635;50.964;6.948;2023-06-19T11:09:06;100783.13;;;27.49;39.65
79411;BME280;69635;50.964;6.948;2023-06-19T11:11:39;100771.22;;;27.87;38.96
79411;BME280;69635;50.964;6.948;2023-06-19T11:14:06;100777.19;;;27.04;40.31
79411;BME280;69635;50.964;6.948;2023-06-19T11:16:32;100776.81;;;27.61;38.45
79411;BME280;69635;50.964;6.948;2023-06-19T11:18:58;100763.53;;;27.81;38.11
79411;BME280;69635;50.964;6.948;2023-06-19T11:21:35;100770.34;;;27.87;38.34
79411;BME280;69635;50.964;6.948;2023-06-19T11:24:11;100750.66;;;27.83;37.58
79411;BME280;69635;50.964;6.948;2023-06-19T11:26:43;100758.25;;;27.15;39.54
79411;BME280;69635;50.964;6.948;2023-06-19T11:29:28;100761.56;;;27.96;38.08
79411;BME280;69635;50.964;6.948;2023-06-19T11:32:07;100752.06;;;27.89;38.53
79411;BME280;69635;50.964;6.948;2023-06-19T11:34:34;100750.84;;;28.18;38.53
79411;BME280;69635;50.964;6.948;2023-06-19T11:37:02;100755.84;;;28.24;38.02
79411;BME280;69635;50.964;6.948;2023-06-19T11:39:28;100757.63;;;27.87;37.66
79411;BME280;69635;50.964;6.948;2023-06-19T11:41:54;100743.75;;;27.92;37.88
79411;BME280;69635;50.964;6.948;2023-06-19T11:44:19;100751.81;;;27.56;38.60
79411;BME280;69635;50.964;6.948;2023-06-19T11:46:45;100748.75;;;27.60;37.25
79411;BME280;69635;50.964;6.948;2023-06-19T11:49:16;100753.19;;;27.99;36.77
79411;BME280;69635;50.964;6.948;2023-06-19T11:51:43;100748.81;;;27.84;37.10
79411;BME280;69635;50.964;6.948;2023-06-19T11:54:10;100753.38;;;27.83;37.48
79411;BME280;69635;50.964;6.948;2023-06-19T11:56:39;100752.06;;;27.89;36.93
79411;BME280;69635;50.964;6.948;2023-06-19T11:59:05;100764.19;;;27.60;37.66
79411;BME280;69635;50.964;6.948;2023-06-19T12:01:35;100778.38;;;27.13;38.36
79411;BME280;69635;50.964;6.948;2023-06-19T12:04:01;100756.97;;;27.21;38.31
79411;BME280;69635;50.964;6.948;2023-06-19T12:06:27;100766.69;;;26.86;39.08
79411;BME280;69635;50.964;6.948;2023-06-19T12:08:53;100749.91;;;27.06;38.90
79411;BME280;69635;50.964;6.948;2023-06-19T12:11:19;100753.41;;;26.81;39.74
79411;BME280;69635;50.964;6.948;2023-06-19T12:13:44;100760.50;;;27.36;38.32
79411;BME280;69635;50.964;6.948;2023-06-19T12:16:10;100758.19;;;27.42;37.58
79411;BME280;69635;50.964;6.948;2023-06-19T12:18:36;100750.75;;;27.19;38.10
79411;BME280;69635;50.964;6.948;2023-06-19T12:21:02;100750.69;;;27.20;37.79
79411;BME280;69635;50.964;6.948;2023-06-19T12:23:27;100747.41;;;27.28;37.67
79411;BME280;69635;50.964;6.948;2023-06-19T12:25:53;100749.94;;;27.81;36.57
79411;BME280;69635;50.964;6.948;2023-06-19T12:28:18;100746.84;;;28.11;36.38
79411;BME280;69635;50.964;6.948;2023-06-19T12:30:47;100746.13;;;27.71;35.61
79411;BME280;69635;50.964;6.948;2023-06-19T12:33:20;100735.91;;;27.62;35.91
79411;BME280;69635;50.964;6.948;2023-06-19T12:35:48;100750.78;;;28.31;35.07
79411;BME280;69635;50.964;6.948;2023-06-19T12:38:14;100752.13;;;28.25;34.60
79411;BME280;69635;50.964;6.948;2023-06-19T12:40:40;100756.13;;;28.32;35.85
79411;BME280;69635;50.964;6.948;2023-06-19T12:43:06;100738.41;;;28.97;34.39
79411;BME280;69635;50.964;6.948;2023-06-19T12:45:32;100748.41;;;29.32;33.89
79411;BME280;69635;50.964;6.948;2023-06-19T12:47:57;100741.13;;;29.08;33.63
79411;BME280;69635;50.964;6.948;2023-06-19T12:50:22;100751.72;;;29.70;31.31
79411;BME280;69635;50.964;6.948;2023-06-19T12:52:48;100753.44;;;29.71;31.34